Time;durP1;ratioP1;P1;durP2;ratioP2;P2;SDS_P1;SDS_P2;PMS_P1;PMS_P2;Temp;Humidity;BMP_temperature;BMP_pressure;BME280_temperature;BME280_humidity;BME280_pressure;Samples;Min_cycle;Max_cycle;Signal;HPM_P1;HPM_P2
2023/09/15 00:00:20;;;;;;;3.30;1.80;;;;;;;13.70;88.66;101355.27;105234;1270;99462;-85
2023/09/15 00:03:26;;;;;;;3.70;2.00;;;;;;;13.68;88.36;101359.54;105105;1268;99344;-85
2023/09/15 00:06:12;;;;;;;2.90;1.90;;;;;;;13.66;88.41;101365.23;105138;1267;99867;-85
2023/09/15 00:08:58;;;;;;;3.00;1.60;;;;;;;13.63;88.20;101371.15;105205;1268;102707;-86
2023/09/15 00:11:47;;;;;;;2.50;1.90;;;;;;;13.59;87.89;101377.10;105193;1267;99342;-86
2023/09/15 00:14:34;;;;;;;3.60;1.60;;;;;;;13.55;88.18;101375.02;105223;1268;99380;-85
2023/09/15 00:17:20;;;;;;;7.90;2.10;;;;;;;13.53;88.55;101369.98;105236;1270;99320;-86
2023/09/15 00:20:13;;;;;;;6.50;2.20;;;;;;;13.49;88.34;101375.61;105284;1269;99844;-86
2023/09/15 00:22:58;;;;;;;4.60;1.70;;;;;;;13.47;88.20;101377.52;105110;1268;102795;-85
2023/09/15 00:25:45;;;;;;;4.80;1.80;;;;;;;13.44;88.13;101375.91;105179;1273;99460;-84
2023/09/15 00:28:30;;;;;;;4.60;1.50;;;;;;;13.40;88.20;101372.63;105178;1267;99441;-85
2023/09/15 00:31:16;;;;;;;3.40;1.80;;;;;;;13.35;88.08;101370.93;105090;1276;99196;-84
2023/09/15 00:34:04;;;;;;;3.60;1.70;;;;;;;13.32;88.25;101370.70;105108;1273;99748;-84
2023/09/15 00:36:49;;;;;;;2.90;1.80;;;;;;;13.29;87.74;101373.45;105060;1268;102779;-84
2023/09/15 00:39:35;;;;;;;7.10;2.20;;;;;;;13.25;87.71;101377.05;105295;1268;99325;-83
2023/09/15 00:42:21;;;;;;;6.80;2.00;;;;;;;13.20;87.71;101378.30;105106;1270;99339;-86
2023/09/15 00:45:11;;;;;;;5.60;2.50;;;;;;;13.14;87.40;101376.65;104942;1267;196693;-85
2023/09/15 00:47:59;;;;;;;2.60;1.90;;;;;;;13.09;87.55;101378.92;105118;1276;99223;-85
2023/09/15 00:50:45;;;;;;;3.90;1.90;;;;;;;13.04;87.45;101384.09;105520;1274;102713;-84
2023/09/15 00:53:36;;;;;;;4.30;1.80;;;;;;;13.01;87.64;101387.92;105401;1267;100712;-85
2023/09/15 00:56:22;;;;;;;7.50;2.20;;;;;;;12.99;88.03;101392.06;105430;1267;99444;-85
2023/09/15 00:59:10;;;;;;;6.00;1.60;;;;;;;12.99;88.08;101393.91;105257;1267;99399;-84
2023/09/15 01:01:57;;;;;;;5.60;2.30;;;;;;;12.98;88.01;101394.58;105174;1270;99479;-84
2023/09/15 01:04:42;;;;;;;4.80;1.80;;;;;;;12.95;87.80;101394.19;105066;1270;102766;-85
2023/09/15 01:07:29;;;;;;;3.00;2.00;;;;;;;12.91;87.61;101397.26;105235;1268;99460;-85
2023/09/15 01:10:14;;;;;;;2.80;1.80;;;;;;;12.85;87.43;101403.25;105295;1268;99261;-86
2023/09/15 01:13:02;;;;;;;2.50;1.70;;;;;;;12.80;87.28;101403.50;105012;1276;99736;-84
2023/09/15 01:15:57;;;;;;;3.70;1.90;;;;;;;12.74;87.31;101404.10;105219;1272;100247;-84
2023/09/15 01:19:07;;;;;;;3.00;1.20;;;;;;;12.69;87.38;101401.35;105180;1267;104097;-86
2023/09/15 01:22:30;;;;;;;2.90;1.70;;;;;;;12.63;87.26;101404.20;105333;1268;99174;-86
2023/09/15 01:25:25;;;;;;;4.30;1.90;;;;;;;12.56;87.36;101407.13;105266;1273;99399;-85
2023/09/15 01:28:34;;;;;;;3.90;1.60;;;;;;;12.52;87.96;101406.70;105144;1273;99272;-85
2023/09/15 01:31:22;;;;;;;4.40;2.00;;;;;;;12.50;88.30;101412.39;105234;1267;99875;-85
2023/09/15 01:34:13;;;;;;;1.90;1.40;;;;;;;12.45;88.23;101411.89;105329;1267;104161;-85
2023/09/15 01:36:58;;;;;;;3.20;1.60;;;;;;;12.41;88.43;101413.19;105259;1267;100256;-84
2023/09/15 01:39:46;;;;;;;3.60;1.80;;;;;;;12.39;88.43;101413.13;105324;1270;99499;-84
2023/09/15 01:42:32;;;;;;;4.50;1.60;;;;;;;12.34;88.32;101414.77;105213;1273;99218;-84
2023/09/15 01:45:18;;;;;;;3.40;1.90;;;;;;;12.29;87.95;101416.64;105183;1270;99314;-85
2023/09/15 01:48:05;;;;;;;2.80;1.70;;;;;;;12.24;87.94;101418.78;105057;1276;104140;-83
2023/09/15 01:50:51;;;;;;;1.60;1.30;;;;;;;12.23;88.38;101417.31;105151;1267;109274;-86
2023/09/15 01:53:38;;;;;;;4.00;2.10;;;;;;;12.19;88.19;101416.87;105173;1273;99342;-85
2023/09/15 01:56:27;;;;;;;3.00;1.60;;;;;;;12.16;88.81;101418.83;105071;1274;99421;-85
2023/09/15 01:59:13;;;;;;;4.60;1.90;;;;;;;12.13;88.61;101418.82;105244;1272;99370;-85
2023/09/15 02:01:58;;;;;;;2.50;1.50;;;;;;;12.11;88.73;101419.77;105140;1276;103574;-85
2023/09/15 02:04:44;;;;;;;3.80;1.50;;;;;;;12.09;88.57;101421.83;105154;1270;99328;-85
2023/09/15 02:07:30;;;;;;;4.50;1.80;;;;;;;12.04;88.24;101423.96;105252;1272;106499;-85
2023/09/15 02:10:15;;;;;;;3.30;1.50;;;;;;;12.01;88.30;101421.48;105042;1273;99459;-85
2023/09/15 02:13:02;;;;;;;3.90;1.70;;;;;;;11.96;88.36;101419.88;105185;1268;99229;-85
2023/09/15 02:15:53;;;;;;;2.20;1.70;;;;;;;11.94;88.37;101420.03;104973;1273;103696;-84
2023/09/15 02:18:40;;;;;;;2.80;1.60;;;;;;;11.90;88.68;101422.60;105143;1272;99338;-84
2023/09/15 02:21:25;;;;;;;3.10;2.10;;;;;;;11.88;88.75;101420.91;105108;1267;99362;-85
2023/09/15 02:24:11;;;;;;;4.10;1.90;;;;;;;11.85;88.67;101425.67;105138;1272;99336;-84
2023/09/15 02:26:57;;;;;;;3.20;1.80;;;;;;;11.81;88.47;101424.05;105146;1270;99800;-83
2023/09/15 02:29:43;;;;;;;6.00;2.00;;;;;;;11.76;88.29;101424.54;105138;1273;103738;-83
2023/09/15 02:32:28;;;;;;;5.40;2.80;;;;;;;11.72;88.71;101430.56;105144;1273;100415;-84
2023/09/15 02:35:14;;;;;;;6.00;1.60;;;;;;;11.70;88.55;101432.66;105123;1267;99386;-83
2023/09/15 02:38:00;;;;;;;4.70;2.10;;;;;;;11.65;88.19;101435.70;105122;1273;99271;-84
2023/09/15 02:40:48;;;;;;;2.10;1.60;;;;;;;11.59;88.41;101442.36;105165;1270;99410;-84
2023/09/15 02:43:34;;;;;;;2.90;1.50;;;;;;;11.54;88.26;101443.11;105241;1268;102716;-85
2023/09/15 02:46:20;;;;;;;4.70;1.90;;;;;;;11.48;88.48;101444.33;104936;1277;99339;-85
2023/09/15 02:49:07;;;;;;;3.60;1.60;;;;;;;11.45;88.60;101442.77;105025;1287;106484;-83
2023/09/15 02:51:53;;;;;;;2.00;1.50;;;;;;;11.43;88.50;101446.43;105137;1267;99351;-83
2023/09/15 02:54:39;;;;;;;5.20;1.50;;;;;;;11.37;88.01;101443.89;105154;1268;99751;-84
2023/09/15 02:57:25;;;;;;;2.60;1.70;;;;;;;11.30;87.84;101450.25;105212;1273;104078;-82
2023/09/15 03:00:13;;;;;;;1.70;1.30;;;;;;;11.22;87.98;101453.61;105338;1273;100509;-84
2023/09/15 03:03:00;;;;;;;3.60;1.40;;;;;;;11.12;87.74;101449.33;105174;1270;99342;-84
2023/09/15 03:05:47;;;;;;;2.50;1.00;;;;;;;11.05;87.96;101450.11;105022;1274;99331;-83
2023/09/15 03:08:33;;;;;;;5.40;1.60;;;;;;;11.00;87.60;101449.88;105302;1273;99380;-84
2023/09/15 03:11:19;;;;;;;3.50;1.00;;;;;;;10.92;87.30;101456.78;105136;1273;104094;-83
2023/09/15 03:14:09;;;;;;;2.90;1.00;;;;;;;10.83;87.25;101464.34;105177;1273;100593;-85
2023/09/15 03:16:54;;;;;;;3.20;1.30;;;;;;;10.75;87.39;101470.05;105024;1273;99256;-85
2023/09/15 03:19:40;;;;;;;2.90;0.90;;;;;;;10.68;87.44;101472.48;105165;1273;99330;-83
2023/09/15 03:22:27;;;;;;;3.10;1.30;;;;;;;10.61;87.59;101468.20;105262;1267;99264;-83
2023/09/15 03:25:17;;;;;;;2.10;1.20;;;;;;;10.58;87.77;101471.77;105280;1273;104150;-84
2023/09/15 03:28:04;;;;;;;6.70;1.30;;;;;;;10.52;87.52;101471.67;105004;1273;99370;-85
2023/09/15 03:30:49;;;;;;;2.40;1.40;;;;;;;10.49;87.85;101474.58;105027;1270;99370;-83
2023/09/15 03:33:36;;;;;;;2.30;1.30;;;;;;;10.46;87.68;101473.39;105348;1272;99337;-85
2023/09/15 03:36:22;;;;;;;2.60;1.60;;;;;;;10.43;87.92;101472.48;105124;1267;99330;-85
2023/09/15 03:39:09;;;;;;;2.70;1.40;;;;;;;10.43;87.92;101474.73;105172;1277;102869;-83
2023/09/15 03:41:54;;;;;;;1.60;1.20;;;;;;;10.38;87.65;101475.80;105311;1273;99402;-83
2023/09/15 03:44:41;;;;;;;2.20;1.20;;;;;;;10.31;87.52;101477.83;105321;1268;99845;-84
2023/09/15 03:47:27;;;;;;;1.90;1.30;;;;;;;10.23;87.35;101476.30;105223;1266;99401;-85
2023/09/15 03:50:19;;;;;;;3.10;1.40;;;;;;;10.19;87.31;101475.35;105168;1274;99797;-86
2023/09/15 03:53:06;;;;;;;1.80;1.10;;;;;;;10.17;87.53;101475.91;105007;1276;103691;-85
2023/09/15 03:55:53;;;;;;;2.50;1.30;;;;;;;10.17;87.83;101479.36;105129;1272;100117;-85
2023/09/15 03:58:39;;;;;;;1.80;1.10;;;;;;;10.17;87.59;101482.37;104948;1273;99356;-86
2023/09/15 04:01:25;;;;;;;1.90;1.30;;;;;;;10.14;87.64;101486.04;105082;1272;99344;-83
2023/09/15 04:04:11;;;;;;;2.40;1.50;;;;;;;10.12;87.71;101487.66;105200;1267;99861;-84
2023/09/15 04:06:56;;;;;;;2.50;1.70;;;;;;;10.07;87.41;101489.19;105272;1272;102734;-84
2023/09/15 04:09:42;;;;;;;1.80;1.20;;;;;;;10.01;87.47;101491.22;105202;1273;99979;-85
2023/09/15 04:12:28;;;;;;;3.60;1.70;;;;;;;9.98;87.54;101498.73;105061;1273;99820;-84
2023/09/15 04:15:15;;;;;;;3.30;1.30;;;;;;;9.94;87.09;101502.02;105073;1270;99415;-84
2023/09/15 04:18:00;;;;;;;2.20;1.40;;;;;;;9.90;87.15;101500.48;105143;1273;99880;-84
2023/09/15 04:20:49;;;;;;;1.90;1.30;;;;;;;9.89;87.26;101502.77;105001;1276;103997;-84
2023/09/15 04:23:34;;;;;;;4.40;1.60;;;;;;;9.90;87.70;101504.73;105213;1276;100378;-87
2023/09/15 04:26:21;;;;;;;3.50;1.90;;;;;;;9.91;87.86;101505.19;105140;1269;99287;-87
2023/09/15 04:29:07;;;;;;;2.60;1.50;;;;;;;9.91;87.87;101506.63;105095;1270;99387;-82
2023/09/15 04:31:53;;;;;;;1.90;1.60;;;;;;;9.91;87.66;101507.14;105300;1267;99341;-85
2023/09/15 04:34:38;;;;;;;2.80;1.60;;;;;;;9.90;87.38;101509.40;105211;1274;103508;-83
2023/09/15 04:37:24;;;;;;;1.70;1.20;;;;;;;9.87;87.37;101509.18;105100;1272;99371;-83
2023/09/15 04:40:10;;;;;;;3.20;1.40;;;;;;;9.85;87.20;101509.77;105211;1270;99354;-85
2023/09/15 04:42:56;;;;;;;4.60;1.80;;;;;;;9.83;87.50;101511.58;104903;1273;99413;-84
2023/09/15 04:45:44;;;;;;;5.20;1.70;;;;;;;9.83;87.99;101511.23;105102;1267;99780;-83
2023/09/15 04:48:29;;;;;;;5.60;1.90;;;;;;;9.83;88.30;101510.70;105112;1267;103561;-84
2023/09/15 04:51:15;;;;;;;2.80;1.80;;;;;;;9.84;88.36;101513.79;105497;1267;100485;-83
2023/09/15 04:54:01;;;;;;;4.20;2.20;;;;;;;9.84;88.43;101516.50;105078;1275;99396;-85
2023/09/15 04:56:48;;;;;;;4.20;1.60;;;;;;;9.82;88.40;101520.06;105052;1267;99373;-83
2023/09/15 04:59:36;;;;;;;5.70;1.50;;;;;;;9.79;88.34;101524.16;105310;1273;98652;-84
2023/09/15 05:02:23;;;;;;;4.50;1.40;;;;;;;9.77;88.34;101523.94;105072;1273;102760;-85
2023/09/15 05:05:10;;;;;;;1.70;1.20;;;;;;;9.77;88.90;101529.73;105218;1267;99920;-83
2023/09/15 05:07:56;;;;;;;2.00;1.10;;;;;;;9.78;88.90;101532.61;105071;1273;100678;-84
2023/09/15 05:10:48;;;;;;;1.60;1.00;;;;;;;9.77;88.85;101532.19;105239;1273;99396;-83
2023/09/15 05:13:34;;;;;;;0.90;0.60;;;;;;;9.75;88.85;101538.23;105162;1267;99234;-82
2023/09/15 05:16:20;;;;;;;3.40;1.20;;;;;;;9.74;88.84;101544.17;105073;1284;103976;-84
2023/09/15 05:19:06;;;;;;;1.60;1.00;;;;;;;9.67;88.92;101548.73;105178;1267;100736;-83
2023/09/15 05:21:51;;;;;;;3.60;1.40;;;;;;;9.63;88.98;101552.42;105258;1271;99370;-83
2023/09/15 05:24:37;;;;;;;1.50;0.80;;;;;;;9.61;89.42;101553.65;105088;1273;99467;-84
2023/09/15 05:27:24;;;;;;;1.80;1.60;;;;;;;9.62;89.64;101559.11;105334;1271;97515;-83
2023/09/15 05:30:11;;;;;;;2.60;2.00;;;;;;;9.66;90.41;101556.21;105143;1267;104107;-83
2023/09/15 05:32:57;;;;;;;3.00;1.70;;;;;;;9.72;91.20;101558.97;105278;1273;99459;-84
2023/09/15 05:35:43;;;;;;;2.80;1.90;;;;;;;9.77;92.23;101563.24;105112;1267;99342;-83
2023/09/15 05:38:29;;;;;;;3.60;2.00;;;;;;;9.81;92.81;101564.82;105113;1273;99554;-83
2023/09/15 05:41:15;;;;;;;3.90;2.20;;;;;;;9.85;93.38;101567.06;105241;1270;99949;-85
2023/09/15 05:44:00;;;;;;;7.00;2.30;;;;;;;9.89;94.19;101567.00;105206;1270;104460;-85
2023/09/15 05:46:47;;;;;;;5.40;2.30;;;;;;;9.93;94.87;101564.91;105200;1272;100582;-85
2023/09/15 05:49:32;;;;;;;3.10;2.10;;;;;;;10.01;95.53;101567.16;105088;1270;99350;-85
2023/09/15 05:52:18;;;;;;;3.80;2.20;;;;;;;10.07;95.86;101564.00;105196;1274;99422;-84
2023/09/15 05:55:04;;;;;;;3.10;2.20;;;;;;;10.14;96.22;101560.27;105036;1270;99783;-86
2023/09/15 05:57:49;;;;;;;5.40;2.50;;;;;;;10.23;96.63;101564.81;105102;1270;103313;-85
2023/09/15 06:00:35;;;;;;;8.30;2.60;;;;;;;10.33;97.01;101566.61;105306;1272;99866;-85
2023/09/15 06:03:25;;;;;;;4.50;2.20;;;;;;;10.44;97.34;101567.44;105271;1267;99354;-84
2023/09/15 06:06:11;;;;;;;5.30;2.70;;;;;;;10.53;97.49;101570.95;105122;1267;99532;-84
2023/09/15 06:08:56;;;;;;;3.80;2.70;;;;;;;10.61;97.72;101570.07;105119;1273;99341;-83
2023/09/15 06:11:42;;;;;;;4.80;2.60;;;;;;;10.70;98.25;101571.36;105238;1272;102753;-84
2023/09/15 06:14:27;;;;;;;5.00;2.80;;;;;;;10.80;98.65;101572.80;105192;1274;100381;-84
2023/09/15 06:17:13;;;;;;;3.80;2.60;;;;;;;10.90;98.87;101573.59;105030;1273;99546;-84
2023/09/15 06:20:00;;;;;;;2.90;2.30;;;;;;;10.99;99.47;101578.77;105066;1267;99358;-83
2023/09/15 06:22:45;;;;;;;12.50;2.50;;;;;;;11.09;99.63;101583.61;105233;1270;99300;-84
2023/09/15 06:25:31;;;;;;;5.20;2.80;;;;;;;11.20;99.25;101584.02;105108;1267;103553;-83
2023/09/15 06:28:17;;;;;;;4.80;2.70;;;;;;;11.30;99.52;101586.47;105261;1270;99760;-83
2023/09/15 06:31:03;;;;;;;5.10;2.30;;;;;;;11.40;99.45;101589.09;104955;1270;99383;-84
2023/09/15 06:33:48;;;;;;;6.80;2.80;;;;;;;11.49;99.48;101595.02;105177;1273;99471;-84
2023/09/15 06:36:36;;;;;;;6.30;2.00;;;;;;;11.59;99.70;101589.56;105252;1267;99131;-84
2023/09/15 06:39:23;;;;;;;3.70;2.00;;;;;;;11.70;99.76;101590.02;105473;1267;103468;-86
2023/09/15 06:42:08;;;;;;;4.90;2.20;;;;;;;11.81;99.79;101588.16;105178;1270;100610;-85
2023/09/15 06:44:57;;;;;;;4.80;2.10;;;;;;;11.91;99.37;101585.39;105075;1267;99370;-85
2023/09/15 06:47:43;;;;;;;3.40;1.90;;;;;;;12.01;99.01;101584.45;105087;1274;99452;-85
2023/09/15 06:50:28;;;;;;;7.60;2.00;;;;;;;12.10;98.88;101586.00;105319;1267;99562;-84
2023/09/15 06:53:14;;;;;;;5.10;1.80;;;;;;;12.19;99.09;101583.40;105143;1272;102710;-83
2023/09/15 06:55:59;;;;;;;4.10;1.90;;;;;;;12.28;98.78;101585.98;105079;1275;99218;-83
2023/09/15 06:58:46;;;;;;;4.90;1.90;;;;;;;12.38;98.63;101584.27;105125;1273;99318;-84
2023/09/15 07:01:31;;;;;;;4.10;1.70;;;;;;;12.48;98.66;101586.40;105144;1267;99399;-84
2023/09/15 07:04:17;;;;;;;5.60;2.10;;;;;;;12.58;98.65;101588.61;105607;1267;97712;-83
2023/09/15 07:07:02;;;;;;;4.20;2.00;;;;;;;12.67;98.58;101592.89;105223;1273;102804;-83
2023/09/15 07:09:48;;;;;;;2.20;1.70;;;;;;;12.78;98.61;101592.90;105207;1270;100925;-85
2023/09/15 07:12:34;;;;;;;4.60;2.00;;;;;;;12.86;98.03;101590.09;105245;1267;99399;-85
2023/09/15 07:15:20;;;;;;;3.00;1.40;;;;;;;12.95;97.86;101594.48;105176;1272;99345;-84
2023/09/15 07:18:07;;;;;;;2.60;1.90;;;;;;;13.03;97.66;101592.59;105233;1267;99745;-84
2023/09/15 07:20:52;;;;;;;4.90;1.60;;;;;;;13.12;97.23;101596.95;105154;1269;103749;-85
2023/09/15 07:23:38;;;;;;;3.60;2.40;;;;;;;13.22;97.05;101596.02;105331;1268;100849;-84
2023/09/15 07:26:26;;;;;;;2.40;1.70;;;;;;;13.30;96.87;101593.04;105183;1267;99386;-85
2023/09/15 07:29:13;;;;;;;4.10;1.60;;;;;;;13.41;97.05;101594.84;105117;1267;99378;-85
2023/09/15 07:31:59;;;;;;;5.10;1.30;;;;;;;13.53;96.98;101596.42;105256;1267;99880;-84
2023/09/15 07:34:45;;;;;;;2.50;1.30;;;;;;;13.64;96.98;101591.59;105128;1272;111422;-85
2023/09/15 07:37:31;;;;;;;3.80;1.60;;;;;;;13.75;96.90;101594.77;105253;1271;99853;-85
2023/09/15 07:40:19;;;;;;;4.70;1.60;;;;;;;13.86;96.36;101595.66;105235;1273;99221;-86
2023/09/15 07:43:04;;;;;;;4.40;1.60;;;;;;;13.96;96.59;101595.49;105284;1273;97689;-85
2023/09/15 07:45:50;;;;;;;3.90;1.50;;;;;;;14.06;96.03;101590.09;105194;1267;99345;-84
2023/09/15 07:48:36;;;;;;;5.80;1.80;;;;;;;14.17;95.82;101584.86;105264;1271;102824;-85
2023/09/15 07:51:23;;;;;;;2.70;1.20;;;;;;;14.25;95.43;101581.13;105730;1270;99351;-84
2023/09/15 07:54:09;;;;;;;4.00;1.50;;;;;;;14.34;95.31;101583.48;105196;1272;99409;-85
2023/09/15 07:56:55;;;;;;;4.20;1.50;;;;;;;14.44;94.75;101583.31;105288;1271;99385;-84
2023/09/15 07:59:41;;;;;;;4.80;1.30;;;;;;;14.53;94.16;101586.70;105250;1270;99803;-85
2023/09/15 08:02:27;;;;;;;3.80;1.50;;;;;;;14.61;94.11;101587.14;105241;1267;102720;-85
2023/09/15 08:05:13;;;;;;;3.40;1.70;;;;;;;14.70;94.18;101584.59;105183;1273;100611;-85
2023/09/15 08:07:58;;;;;;;3.60;1.70;;;;;;;14.80;93.92;101586.31;105235;1272;99470;-84
2023/09/15 08:10:45;;;;;;;5.00;1.50;;;;;;;14.90;93.66;101587.59;105086;1267;99422;-83
2023/09/15 08:13:32;;;;;;;4.20;1.30;;;;;;;15.01;93.17;101588.39;105215;1273;99360;-84
2023/09/15 08:16:17;;;;;;;4.40;1.30;;;;;;;15.08;92.48;101587.80;105175;1267;102913;-83
2023/09/15 08:19:03;;;;;;;5.00;1.80;;;;;;;15.17;92.58;101586.51;105137;1270;99415;-84
2023/09/15 08:21:49;;;;;;;2.90;1.10;;;;;;;15.28;92.96;101589.15;105158;1267;99357;-85
2023/09/15 08:24:35;;;;;;;3.70;1.50;;;;;;;15.41;92.74;101588.13;105260;1272;99328;-85
2023/09/15 08:27:20;;;;;;;2.10;1.30;;;;;;;15.52;91.70;101586.66;105224;1272;101938;-85
2023/09/15 08:30:09;;;;;;;5.50;1.60;;;;;;;15.60;91.20;101584.14;105250;1267;102778;-85
2023/09/15 08:32:55;;;;;;;2.60;1.30;;;;;;;15.69;90.25;101583.50;105293;1267;99772;-84
2023/09/15 08:35:40;;;;;;;3.50;1.40;;;;;;;15.77;89.52;101582.20;105301;1267;99345;-85
2023/09/15 08:38:31;;;;;;;3.20;1.60;;;;;;;15.88;89.17;101579.07;105237;1267;99344;-84
2023/09/15 08:41:23;;;;;;;3.00;1.30;;;;;;;15.98;89.20;101576.73;105124;1270;99363;-84
2023/09/15 08:44:09;;;;;;;5.80;1.50;;;;;;;16.10;89.14;101579.86;105056;1266;102804;-85
2023/09/15 08:46:56;;;;;;;3.60;1.40;;;;;;;16.19;88.05;101578.73;105385;1270;100431;-83
2023/09/15 08:49:44;;;;;;;2.20;1.30;;;;;;;16.27;87.62;101577.61;105494;1268;99919;-85
2023/09/15 08:52:31;;;;;;;2.90;1.10;;;;;;;16.36;87.32;101573.08;105316;1270;99389;-84
2023/09/15 08:55:18;;;;;;;3.20;1.30;;;;;;;16.45;87.07;101574.95;105207;1273;99349;-85
2023/09/15 08:58:05;;;;;;;3.40;1.30;;;;;;;16.54;86.75;101574.39;105123;1273;102939;-83
2023/09/15 09:00:53;;;;;;;4.00;1.10;;;;;;;16.63;85.49;101574.30;105111;1267;99784;-85
2023/09/15 09:03:40;;;;;;;1.70;1.20;;;;;;;16.72;85.46;101572.18;105082;1267;99812;-85
2023/09/15 09:06:27;;;;;;;2.10;1.10;;;;;;;16.80;84.85;101573.88;105121;1267;99339;-86
2023/09/15 09:09:14;;;;;;;2.00;1.00;;;;;;;16.84;83.71;101575.83;105071;1270;99871;-86
2023/09/15 09:12:00;;;;;;;2.10;1.30;;;;;;;16.86;82.82;101577.48;105285;1273;104475;-84
2023/09/15 09:14:45;;;;;;;2.00;1.20;;;;;;;16.91;82.39;101576.73;105057;1267;100479;-85
2023/09/15 09:17:31;;;;;;;4.00;1.30;;;;;;;16.98;82.37;101577.32;105156;1267;106497;-86
2023/09/15 09:20:36;;;;;;;3.40;1.30;;;;;;;17.04;81.94;101575.02;105102;1267;99611;-85
2023/09/15 09:23:22;;;;;;;1.50;1.20;;;;;;;17.10;81.64;101572.69;105275;1267;101024;-86
2023/09/15 09:26:11;;;;;;;2.80;1.60;;;;;;;17.16;81.92;101577.08;105096;1267;102844;-85
2023/09/15 09:28:57;;;;;;;3.70;1.70;;;;;;;17.25;81.32;101578.46;105329;1267;99263;-85
2023/09/15 09:31:44;;;;;;;2.10;1.10;;;;;;;17.33;81.40;101577.81;105355;1267;99722;-86
2023/09/15 09:34:30;;;;;;;5.00;1.30;;;;;;;17.43;81.90;101576.23;105402;1267;99357;-86
2023/09/15 09:37:17;;;;;;;2.50;1.20;;;;;;;17.53;80.57;101574.38;105134;1270;99252;-85
2023/09/15 09:40:06;;;;;;;3.20;1.20;;;;;;;17.60;79.99;101573.34;105111;1267;102794;-84
2023/09/15 09:42:53;;;;;;;5.20;1.50;;;;;;;17.68;79.24;101575.13;105248;1270;99321;-86
2023/09/15 09:45:38;;;;;;;3.60;1.30;;;;;;;17.75;78.24;101576.20;105267;1267;99332;-85
2023/09/15 09:48:26;;;;;;;4.40;1.50;;;;;;;17.80;77.58;101579.38;105230;1269;99370;-86
2023/09/15 09:51:15;;;;;;;2.00;1.30;;;;;;;17.85;77.08;101578.95;105084;1267;101078;-86
2023/09/15 09:54:02;;;;;;;3.60;1.50;;;;;;;17.92;77.56;101582.61;105024;1273;103826;-85
2023/09/15 09:56:49;;;;;;;2.40;1.40;;;;;;;17.97;75.77;101578.73;105631;1267;99355;-85
2023/09/15 09:59:38;;;;;;;3.70;1.30;;;;;;;18.02;74.63;101578.67;105246;1270;99542;-85
2023/09/15 10:02:23;;;;;;;2.00;1.30;;;;;;;17.98;73.89;101577.05;105135;1267;99436;-85
2023/09/15 10:05:09;;;;;;;2.50;1.40;;;;;;;17.94;74.24;101575.64;105228;1273;99340;-86
2023/09/15 10:07:55;;;;;;;2.40;1.20;;;;;;;17.92;73.74;101576.34;105108;1273;102698;-84
2023/09/15 10:10:44;;;;;;;2.50;1.50;;;;;;;17.96;74.09;101575.30;105171;1267;100136;-85
2023/09/15 10:13:31;;;;;;;3.00;1.20;;;;;;;18.04;74.93;101573.80;105285;1269;99412;-85
2023/09/15 10:16:17;;;;;;;1.50;1.00;;;;;;;18.13;74.56;101576.52;105211;1267;99353;-84
2023/09/15 10:19:05;;;;;;;2.80;1.60;;;;;;;18.23;74.65;101576.33;104911;1276;99826;-85
2023/09/15 10:21:51;;;;;;;1.80;1.20;;;;;;;18.34;74.16;101574.51;105180;1272;104474;-85
2023/09/15 10:24:42;;;;;;;1.90;1.20;;;;;;;18.41;73.89;101572.68;105298;1273;99261;-84
2023/09/15 10:27:28;;;;;;;2.50;1.30;;;;;;;18.46;72.44;101573.70;105061;1267;99782;-85
2023/09/15 10:30:14;;;;;;;2.80;1.40;;;;;;;18.48;72.31;101573.02;105200;1267;99259;-83
2023/09/15 10:33:00;;;;;;;1.80;1.10;;;;;;;18.54;72.47;101568.52;105147;1266;99784;-84
2023/09/15 10:35:45;;;;;;;3.60;1.60;;;;;;;18.61;71.85;101569.36;105276;1272;102971;-85
2023/09/15 10:38:35;;;;;;;1.70;0.90;;;;;;;18.64;70.22;101565.89;105172;1270;99357;-85
2023/09/15 10:41:30;;;;;;;2.30;1.30;;;;;;;18.67;70.13;101566.80;105192;1273;99275;-85
2023/09/15 10:44:15;;;;;;;2.00;1.20;;;;;;;18.72;70.25;101568.37;105224;1267;100719;-85
2023/09/15 10:47:01;;;;;;;1.30;1.10;;;;;;;18.79;69.91;101564.95;105108;1267;99410;-84
2023/09/15 10:49:50;;;;;;;2.90;1.10;;;;;;;18.86;69.78;101565.98;105267;1270;102800;-84
2023/09/15 10:52:37;;;;;;;1.40;1.00;;;;;;;18.91;68.84;101570.31;105160;1267;99506;-85
2023/09/15 10:55:24;;;;;;;2.40;1.30;;;;;;;18.93;68.53;101566.36;105368;1267;97877;-84
2023/09/15 10:58:14;;;;;;;2.30;1.10;;;;;;;18.97;68.47;101563.88;105213;1273;99335;-85
2023/09/15 11:00:59;;;;;;;1.50;1.10;;;;;;;19.00;67.30;101559.86;105060;1267;101009;-85
2023/09/15 11:03:46;;;;;;;4.30;1.50;;;;;;;19.03;67.54;101565.18;105401;1267;102763;-85
2023/09/15 11:06:32;;;;;;;3.60;1.20;;;;;;;19.10;67.17;101565.64;105130;1273;100563;-84
2023/09/15 11:09:19;;;;;;;2.30;1.40;;;;;;;19.14;66.81;101566.23;104993;1273;106341;-85
2023/09/15 11:12:05;;;;;;;1.30;1.00;;;;;;;19.15;65.87;101563.80;105260;1267;99679;-85
2023/09/15 11:14:58;;;;;;;2.90;1.00;;;;;;;19.14;64.99;101558.58;105196;1268;99775;-85
2023/09/15 11:17:44;;;;;;;2.60;1.10;;;;;;;19.15;65.04;101557.58;105235;1267;102832;-84
2023/09/15 11:20:30;;;;;;;2.30;1.20;;;;;;;19.17;65.25;101557.27;105256;1270;99446;-86
2023/09/15 11:23:17;;;;;;;3.60;1.50;;;;;;;19.24;65.71;101551.52;104932;1273;106244;-86
2023/09/15 11:26:06;;;;;;;5.20;1.10;;;;;;;19.30;65.07;101554.70;105304;1267;99271;-84
2023/09/15 11:28:53;;;;;;;3.80;1.30;;;;;;;19.35;64.17;101551.02;105371;1266;100808;-85
2023/09/15 11:31:39;;;;;;;3.00;1.50;;;;;;;19.39;64.08;101549.98;105297;1270;103429;-86
2023/09/15 11:34:26;;;;;;;3.50;1.20;;;;;;;19.42;63.70;101543.73;105253;1273;100186;-86
2023/09/15 11:37:13;;;;;;;2.60;1.30;;;;;;;19.46;63.55;101544.75;105244;1270;99274;-85
2023/09/15 11:39:58;;;;;;;2.50;1.30;;;;;;;19.50;62.49;101539.48;105328;1269;99054;-84
2023/09/15 11:43:00;;;;;;;1.30;1.00;;;;;;;19.50;61.74;101528.12;105210;1270;99348;-85
2023/09/15 11:45:48;;;;;;;2.40;1.20;;;;;;;19.54;61.80;101524.28;105389;1267;104025;-85
2023/09/15 11:48:38;;;;;;;2.10;1.00;;;;;;;19.60;61.88;101521.83;105373;1267;99196;-85
2023/09/15 11:51:24;;;;;;;1.70;1.00;;;;;;;19.68;61.49;101527.29;105228;1267;99392;-84
2023/09/15 11:54:10;;;;;;;3.10;1.40;;;;;;;19.72;61.86;101527.48;105091;1267;99754;-85
2023/09/15 11:56:59;;;;;;;1.80;1.30;;;;;;;19.79;61.73;101526.38;105165;1267;100617;-84
2023/09/15 11:59:46;;;;;;;3.30;1.10;;;;;;;19.86;61.19;101528.22;105196;1267;102796;-86
2023/09/15 12:02:31;;;;;;;2.30;1.10;;;;;;;19.89;60.06;101527.17;105028;1273;101119;-85
2023/09/15 12:05:21;;;;;;;2.00;1.00;;;;;;;19.94;60.30;101524.66;104959;1268;99344;-84
2023/09/15 12:08:07;;;;;;;1.90;1.30;;;;;;;20.07;60.85;101524.14;105262;1267;99288;-85
2023/09/15 12:10:53;;;;;;;1.80;1.00;;;;;;;20.13;59.49;101517.46;105313;1267;99879;-85
2023/09/15 12:13:39;;;;;;;4.00;1.40;;;;;;;20.16;59.25;101513.10;105221;1270;102751;-85
2023/09/15 12:16:31;;;;;;;2.10;1.00;;;;;;;20.20;59.33;101516.66;105101;1267;100496;-84
2023/09/15 12:19:16;;;;;;;1.80;1.10;;;;;;;20.22;59.13;101515.42;105653;1267;99122;-85
2023/09/15 12:22:02;;;;;;;2.10;1.10;;;;;;;20.24;59.12;101516.33;105210;1267;99233;-85
2023/09/15 12:24:48;;;;;;;3.10;1.50;;;;;;;20.29;59.04;101511.11;105033;1276;99275;-85
2023/09/15 12:27:33;;;;;;;3.60;1.40;;;;;;;20.32;58.53;101507.14;105188;1273;102787;-85
2023/09/15 12:30:19;;;;;;;4.30;1.80;;;;;;;20.38;58.48;101502.88;105218;1267;100534;-84
2023/09/15 12:33:06;;;;;;;2.10;1.10;;;;;;;20.47;58.19;101504.63;105325;1267;99264;-84
2023/09/15 12:35:53;;;;;;;1.50;1.00;;;;;;;20.53;57.47;101502.71;105156;1270;99459;-86
2023/09/15 12:38:39;;;;;;;2.40;1.40;;;;;;;20.55;56.43;101497.11;105148;1268;99777;-85
2023/09/15 12:41:24;;;;;;;1.70;1.20;;;;;;;20.57;56.22;101493.23;105384;1267;102861;-84
2023/09/15 12:44:11;;;;;;;2.50;1.10;;;;;;;20.55;55.69;101489.83;105206;1270;101560;-86